Oceanside, CA (92049)

10:25 PM PST on December 09, 2016 (GMT -0800)
Oceanside | | Change Station

Elev 138 ft 33.19 °N, 117.37 °W | Updated 4 minutes ago

Overcast
Overcast
58.8 °F
Feels Like 58.8 °F
N
0.0
Wind Variable Wind from WSW
Gusts 0.0 mph

Today
High -- | Low -- °F
--% Chance of Precip.
Yesterday
High -- | Low -- °F
Precip. -- in
Pressure 30.19 in
Visibility 3.0 miles
Clouds Overcast 1300 ft
Dew Point 56 °F
Humidity 92%
Rainfall 0.00 in
Snow Depth Not available.
6:41 AM 4:42 PM
Waxing Gibbous, 81% visible
SPECI KOKB 100621Z AUTO 00000KT 3SM BR OVC013 12/11 A3019 RMK AO2 T01170111
Pressure 30.19 in
Visibility 3.0 miles
Clouds Overcast 1300 ft
Dew Point 56 °F
Humidity 92%
Rainfall 0.00 in
Snow Depth Not available.
6:41 AM 4:42 PM
Waxing Gibbous, 81% visible
SPECI KOKB 100621Z AUTO 00000KT 3SM BR OVC013 12/11 A3019 RMK AO2 T01170111

10-Day Weather Forecast

Almanac

Astronomy

Dec. 09, 2016 Rise Set
Actual Time
Civil Twilight
Nautical Twilight
Astronomical Twilight
Moon
Length of Visible Light
Length of Day
Tomorrow will be .
, % of the Moon is Illuminated

Today's Extremes

State Highs State Lows

Community

WunderPhotos

Upload Photos

1,956,527 photos uploaded!

WunderBlog® & News

Nearby

Air Quality

  Air Quality AQ Index Pollutant
Not available.

Snow Depth

Station Depth Elevation

Earthquake Activity

City Distance Mag. Time & Date
Minimum magnitude displayed is 2.5.

Coastal Water Temperatures

Place Temperature

Stations

Nearby Weather Stations

Station Location Temp. Windchill Dew Point Humidity Wind Precip. Elev Updated Type
                   

Watches & Warnings

There are currently no watches in effect.